createdAt,value
2018-01-13T00:00:00.946Z,30.90
2018-01-13T00:02:28.426Z,29.27
2018-01-13T00:04:55.893Z,30.20
2018-01-13T00:07:23.371Z,32.03
2018-01-13T00:09:51.606Z,29.53
2018-01-13T00:12:19.087Z,29.47
2018-01-13T00:14:46.553Z,32.57
2018-01-13T00:17:14.800Z,32.30
2018-01-13T00:19:42.266Z,32.20
2018-01-13T00:22:09.746Z,31.20
2018-01-13T00:24:37.982Z,31.07
2018-01-13T00:27:05.468Z,31.90
2018-01-13T00:29:32.939Z,31.07
2018-01-13T00:32:00.405Z,28.37
2018-01-13T00:34:28.643Z,31.50
2018-01-13T00:36:56.105Z,27.90
2018-01-13T00:39:23.586Z,27.70
2018-01-13T00:41:51.058Z,28.80
2018-01-13T00:44:19.298Z,28.70
2018-01-13T00:46:46.771Z,27.80
2018-01-13T00:49:26.909Z,27.47
2018-01-13T00:51:54.375Z,29.73
2018-01-13T00:54:21.845Z,27.27
2018-01-13T00:56:49.309Z,28.87
2018-01-13T00:59:17.549Z,27.70
2018-01-13T01:01:45.018Z,27.70
2018-01-13T01:04:12.486Z,27.70
2018-01-13T01:06:39.946Z,29.20
2018-01-13T01:09:07.419Z,26.90
2018-01-13T01:11:35.656Z,28.47
2018-01-13T01:14:03.128Z,27.50
2018-01-13T01:16:30.588Z,28.07
2018-01-13T01:18:58.062Z,27.13
2018-01-13T01:21:25.526Z,28.90
2018-01-13T01:23:53.773Z,27.30
2018-01-13T01:26:21.245Z,26.90
2018-01-13T01:28:48.734Z,28.17
2018-01-13T01:31:17.181Z,26.20
2018-01-13T01:33:44.654Z,28.27
2018-01-13T01:36:12.126Z,30.03
2018-01-13T01:38:40.371Z,29.90
2018-01-13T01:41:07.844Z,27.47
2018-01-13T01:43:35.323Z,27.23
2018-01-13T01:46:03.553Z,27.97
2018-01-13T01:48:31.037Z,27.50
2018-01-13T01:50:58.505Z,28.00
2018-01-13T01:53:26.750Z,26.60
2018-01-13T01:55:54.218Z,27.40
2018-01-13T01:58:21.691Z,28.97
2018-01-13T02:00:49.930Z,27.37
2018-01-13T02:03:17.401Z,25.77
2018-01-13T02:05:44.873Z,27.67
2018-01-13T02:08:12.354Z,26.27
2018-01-13T02:10:40.593Z,26.97
2018-01-13T02:13:08.069Z,24.00
2018-01-13T02:15:35.534Z,25.57
2018-01-13T02:18:03.005Z,26.17
2018-01-13T02:20:31.248Z,24.47
2018-01-13T02:22:58.714Z,24.67
2018-01-13T02:25:26.231Z,24.90
2018-01-13T02:27:53.650Z,26.87
2018-01-13T02:30:21.873Z,25.73
2018-01-13T02:32:49.362Z,24.70
2018-01-13T02:35:16.842Z,25.37
2018-01-13T02:37:45.086Z,25.80
2018-01-13T02:40:12.550Z,25.93
2018-01-13T02:42:40.029Z,29.03
2018-01-13T02:45:07.486Z,29.40
2018-01-13T02:47:35.719Z,29.60
2018-01-13T02:50:03.203Z,29.07
2018-01-13T02:52:30.669Z,29.83
2018-01-13T02:54:58.164Z,27.53
2018-01-13T02:57:26.383Z,28.40
2018-01-13T02:59:53.860Z,27.63
2018-01-13T03:02:21.337Z,30.50
2018-01-13T03:04:49.575Z,28.43
2018-01-13T03:07:17.037Z,28.47
2018-01-13T03:09:44.513Z,29.07
2018-01-13T03:12:11.994Z,28.33
2018-01-13T03:14:40.245Z,29.40
2018-01-13T03:17:07.722Z,31.63
2018-01-13T03:19:35.974Z,31.17
2018-01-13T03:22:03.441Z,30.83
2018-01-13T03:24:30.920Z,30.13
2018-01-13T03:26:59.157Z,32.13
2018-01-13T03:29:26.643Z,32.73
2018-01-13T03:31:54.114Z,32.20
2018-01-13T03:34:21.586Z,30.83
2018-01-13T03:36:49.060Z,31.60
2018-01-13T03:39:16.546Z,32.97
2018-01-13T03:41:44.027Z,34.60
2018-01-13T03:44:11.503Z,33.17
2018-01-13T03:46:39.739Z,33.77
2018-01-13T03:49:07.214Z,33.33
2018-01-13T03:51:34.682Z,31.50
2018-01-13T03:54:02.158Z,32.30
2018-01-13T03:56:30.407Z,33.97
2018-01-13T03:58:57.882Z,34.50
2018-01-13T04:01:26.118Z,37.10
2018-01-13T04:03:53.595Z,32.47
2018-01-13T04:06:21.066Z,32.93
2018-01-13T04:08:48.555Z,32.40
2018-01-13T04:11:16.019Z,34.10
2018-01-13T04:13:43.504Z,33.50
2018-01-13T04:16:10.978Z,31.93
2018-01-13T04:18:38.454Z,33.27
2018-01-13T04:21:05.928Z,31.90
2018-01-13T04:23:34.183Z,31.70
2018-01-13T04:26:01.656Z,31.63
2018-01-13T04:28:29.898Z,34.00
2018-01-13T04:30:57.363Z,30.93
2018-01-13T04:33:24.854Z,31.30
2018-01-13T04:35:53.095Z,31.90
2018-01-13T04:38:20.570Z,32.17
2018-01-13T04:40:48.049Z,34.50
2018-01-13T04:46:09.436Z,30.60
2018-01-13T04:48:36.902Z,30.73
2018-01-13T04:51:04.370Z,29.80
2018-01-13T04:53:31.866Z,30.57
2018-01-13T04:56:00.097Z,32.10
2018-01-13T04:58:27.579Z,32.50
2018-01-13T05:00:55.051Z,30.23
2018-01-13T05:03:23.318Z,30.10
2018-01-13T05:05:51.545Z,31.07
2018-01-13T05:08:19.030Z,30.90
2018-01-13T05:10:46.509Z,30.90
2018-01-13T05:13:13.974Z,29.10
2018-01-13T05:15:42.223Z,28.53
2018-01-13T05:18:09.691Z,27.80
2018-01-13T05:20:37.171Z,28.93
2018-01-13T05:23:05.406Z,27.03
2018-01-13T05:25:32.890Z,28.33
2018-01-13T05:28:00.367Z,30.40
2018-01-13T05:30:28.618Z,30.40
2018-01-13T05:32:56.083Z,28.70
2018-01-13T05:35:23.579Z,31.97
2018-01-13T05:37:51.061Z,29.63
2018-01-13T05:40:18.548Z,29.33
2018-01-13T05:42:46.023Z,28.40
2018-01-13T05:45:13.507Z,30.47
2018-01-13T05:47:40.966Z,30.00
2018-01-13T05:50:08.450Z,32.10
2018-01-13T05:52:35.925Z,30.03
2018-01-13T05:55:03.403Z,29.93
2018-01-13T05:57:30.866Z,31.90
2018-01-13T05:59:58.350Z,29.73
2018-01-13T06:02:26.582Z,32.07
2018-01-13T06:04:54.059Z,32.93
2018-01-13T06:07:21.553Z,29.60
2018-01-13T06:09:49.037Z,30.73
2018-01-13T06:12:16.508Z,28.63
2018-01-13T06:14:43.991Z,31.60
2018-01-13T06:17:11.462Z,28.43
2018-01-13T06:19:39.707Z,30.27
2018-01-13T06:22:07.174Z,30.30
2018-01-13T06:24:34.676Z,32.40
2018-01-13T06:27:02.902Z,28.67
2018-01-13T06:29:30.390Z,34.10
2018-01-13T06:31:58.634Z,31.33
2018-01-13T06:34:26.375Z,30.23
2018-01-13T06:36:53.851Z,29.20
2018-01-13T06:39:21.331Z,31.10
2018-01-13T06:41:48.803Z,29.33
2018-01-13T06:44:17.051Z,31.40
2018-01-13T06:46:44.526Z,29.87
2018-01-13T06:49:12.015Z,28.20
2018-01-13T06:51:39.491Z,31.93
2018-01-13T06:54:06.975Z,34.60
2018-01-13T06:56:34.454Z,33.07
2018-01-13T06:59:01.937Z,29.00
2018-01-13T07:01:30.168Z,30.90
2018-01-13T07:03:57.647Z,32.03
2018-01-13T07:06:25.123Z,33.67
2018-01-13T07:08:53.395Z,31.23
2018-01-13T07:11:21.626Z,31.53
2018-01-13T07:13:49.094Z,30.87
2018-01-13T07:16:16.579Z,32.80
2018-01-13T07:18:44.047Z,33.30
2018-01-13T07:21:12.297Z,33.93
2018-01-13T07:23:39.767Z,32.53
2018-01-13T07:26:07.251Z,35.73
2018-01-13T07:28:35.490Z,34.13
2018-01-13T07:31:02.981Z,37.67
2018-01-13T07:33:31.220Z,32.50
2018-01-13T07:35:58.694Z,32.20
2018-01-13T07:38:26.182Z,33.90
2018-01-13T07:40:54.430Z,32.40
2018-01-13T07:43:21.927Z,35.00
2018-01-13T07:45:49.418Z,37.00
2018-01-13T07:48:16.884Z,33.17
2018-01-13T07:50:44.357Z,34.43
2018-01-13T07:53:11.826Z,31.37
2018-01-13T07:55:39.315Z,33.57
2018-01-13T07:58:06.782Z,31.50
2018-01-13T08:00:34.262Z,35.77
2018-01-13T08:03:01.726Z,35.27
2018-01-13T08:05:29.196Z,31.90
2018-01-13T08:07:56.680Z,34.97
2018-01-13T08:10:24.164Z,30.10
2018-01-13T08:12:51.642Z,34.00
2018-01-13T08:15:19.123Z,33.80
2018-01-13T08:17:46.590Z,34.00
2018-01-13T08:20:14.070Z,33.27
2018-01-13T08:22:41.550Z,36.90
2018-01-13T08:25:09.813Z,33.57
2018-01-13T08:27:37.269Z,34.10
2018-01-13T08:30:05.515Z,36.10
2018-01-13T08:32:32.993Z,34.60
2018-01-13T08:35:00.471Z,35.20
2018-01-13T08:37:28.719Z,31.90
2018-01-13T08:39:56.204Z,33.87
2018-01-13T08:42:24.457Z,37.50
2018-01-13T08:44:51.930Z,39.87
2018-01-13T08:47:20.183Z,40.70
2018-01-13T08:49:47.963Z,38.13
2018-01-13T08:52:15.653Z,34.30
2018-01-13T08:54:43.891Z,38.83
2018-01-13T08:57:11.630Z,33.10
2018-01-13T08:59:39.214Z,38.53
2018-01-13T09:02:08.462Z,35.90
2018-01-13T09:04:35.945Z,37.60
2018-01-13T09:07:03.414Z,35.60
2018-01-13T09:09:30.924Z,37.20
2018-01-13T09:11:58.411Z,38.37
2018-01-13T09:14:25.889Z,35.57
2018-01-13T09:16:53.372Z,36.97
2018-01-13T09:19:20.855Z,37.67
2018-01-13T09:21:49.901Z,41.37
2018-01-13T09:24:17.382Z,38.40
2018-01-13T09:26:44.865Z,36.03
2018-01-13T09:29:13.099Z,34.30
2018-01-13T09:31:40.574Z,36.93
2018-01-13T09:34:08.103Z,37.00
2018-01-13T09:36:36.306Z,34.27
2018-01-13T09:39:03.778Z,38.07
2018-01-13T09:41:31.250Z,37.00
2018-01-13T09:43:59.486Z,39.10
2018-01-13T09:46:26.976Z,35.43
2018-01-13T09:48:54.438Z,40.37
2018-01-13T09:51:22.693Z,37.93
2018-01-13T09:53:50.184Z,37.30
2018-01-13T09:56:18.431Z,38.80
2018-01-13T09:58:45.909Z,40.13
2018-01-13T10:01:14.151Z,37.10
2018-01-13T10:03:41.650Z,35.97
2018-01-13T10:06:09.124Z,41.37
2018-01-13T10:08:36.595Z,38.07
2018-01-13T10:11:04.095Z,35.60
2018-01-13T10:13:31.567Z,40.10
2018-01-13T10:15:59.054Z,39.00
2018-01-13T10:18:26.526Z,37.17
2018-01-13T10:20:54.027Z,34.80
2018-01-13T10:23:21.499Z,36.50
2018-01-13T10:25:48.971Z,37.13
2018-01-13T10:28:17.211Z,37.43
2018-01-13T10:30:45.467Z,37.33
2018-01-13T10:33:12.947Z,36.97
2018-01-13T10:35:41.237Z,40.53
2018-01-13T10:38:08.704Z,38.37
2018-01-13T10:40:36.955Z,40.37
2018-01-13T10:43:04.430Z,42.37
2018-01-13T10:45:31.916Z,39.40
2018-01-13T10:47:59.403Z,42.10
2018-01-13T10:50:26.888Z,41.33
2018-01-13T10:52:54.358Z,40.27
2018-01-13T10:55:21.848Z,40.87
2018-01-13T10:57:50.083Z,41.37
2018-01-13T11:00:17.568Z,41.90
2018-01-13T11:02:45.807Z,41.27
2018-01-13T11:05:13.286Z,45.63
2018-01-13T11:07:40.767Z,41.30
2018-01-13T11:10:09.007Z,40.83
2018-01-13T11:12:36.480Z,39.60
2018-01-13T11:15:03.959Z,41.03
2018-01-13T11:17:32.202Z,41.77
2018-01-13T11:19:59.682Z,40.47
2018-01-13T11:22:27.177Z,41.87
2018-01-13T11:24:54.653Z,45.60
2018-01-13T11:27:22.149Z,44.97
2018-01-13T11:29:49.629Z,43.70
2018-01-13T11:32:17.886Z,44.93
2018-01-13T11:34:45.649Z,45.27
2018-01-13T11:37:13.139Z,46.03
2018-01-13T11:39:40.620Z,44.13
2018-01-13T11:42:08.122Z,47.47
2018-01-13T11:44:35.603Z,48.63
2018-01-13T11:47:03.859Z,45.13
2018-01-13T11:49:31.362Z,46.10
2018-01-13T11:51:58.837Z,45.60
2018-01-13T11:54:26.309Z,46.53
2018-01-13T11:56:53.787Z,48.40
2018-01-13T11:59:21.275Z,45.13
2018-01-13T12:01:49.523Z,47.83
2018-01-13T12:04:17.019Z,49.17
2018-01-13T12:06:44.512Z,48.10
2018-01-13T12:09:11.986Z,48.77
2018-01-13T12:11:39.461Z,49.60
2018-01-13T12:14:06.932Z,48.67
2018-01-13T12:16:34.520Z,48.37
2018-01-13T12:19:01.991Z,48.00
2018-01-13T12:21:29.498Z,52.53
2018-01-13T12:23:56.967Z,52.37
2018-01-13T12:26:24.460Z,53.87
2018-01-13T12:28:51.931Z,53.57
2018-01-13T12:31:19.418Z,50.60
2018-01-13T12:33:46.914Z,53.13
2018-01-13T12:36:15.164Z,54.20
2018-01-13T12:38:42.646Z,51.10
2018-01-13T12:41:10.894Z,54.40
2018-01-13T12:43:38.379Z,53.77
2018-01-13T12:46:06.633Z,53.20
2018-01-13T12:48:34.106Z,54.93
2018-01-13T12:51:02.369Z,54.37
2018-01-13T12:53:29.871Z,55.77
2018-01-13T12:55:57.355Z,56.17
2018-01-13T12:58:24.834Z,52.83
2018-01-13T13:00:52.401Z,54.40
2018-01-13T13:03:19.878Z,49.73
2018-01-13T13:05:47.355Z,49.60
2018-01-13T13:08:14.835Z,48.13
2018-01-13T13:10:42.355Z,47.60
2018-01-13T13:13:10.600Z,48.70
2018-01-13T13:15:38.074Z,47.30
2018-01-13T13:18:05.556Z,49.70
2018-01-13T13:20:33.871Z,48.27
2018-01-13T13:23:01.386Z,50.70
2018-01-13T13:25:29.660Z,46.10
2018-01-13T13:27:57.172Z,49.67
2018-01-13T13:30:24.660Z,49.00
2018-01-13T13:32:52.143Z,44.83
2018-01-13T13:35:20.374Z,39.00
2018-01-13T13:37:47.863Z,37.73
2018-01-13T13:40:15.340Z,36.70
2018-01-13T13:42:43.587Z,37.37
2018-01-13T13:45:11.064Z,35.77
2018-01-13T13:47:39.315Z,35.07
2018-01-13T13:50:06.792Z,36.27
2018-01-13T13:52:34.273Z,34.93
2018-01-13T13:55:02.504Z,34.40
2018-01-13T13:57:29.991Z,31.33
2018-01-13T13:59:58.234Z,34.37
2018-01-13T14:02:25.716Z,35.33
2018-01-13T14:04:53.190Z,32.90
2018-01-13T14:07:21.450Z,30.57
2018-01-13T14:09:48.922Z,31.20
2018-01-13T14:12:17.158Z,27.40
2018-01-13T14:14:44.627Z,27.20
2018-01-13T14:17:12.698Z,26.93
2018-01-13T14:19:40.158Z,26.50
2018-01-13T14:22:07.649Z,26.00
2018-01-13T14:24:35.882Z,23.60
2018-01-13T14:27:03.375Z,23.90
2018-01-13T14:29:30.842Z,22.20
2018-01-13T14:31:59.091Z,23.80
2018-01-13T14:34:26.550Z,22.83
2018-01-13T14:36:54.026Z,23.57
2018-01-13T14:39:22.279Z,24.00
2018-01-13T14:41:49.766Z,23.60
2018-01-13T14:44:18.002Z,23.13
2018-01-13T14:46:45.490Z,24.60
2018-01-13T14:49:13.722Z,24.67
2018-01-13T14:51:41.198Z,23.87
2018-01-13T14:54:08.676Z,28.23
2018-01-13T14:56:36.163Z,25.30
2018-01-13T14:59:03.642Z,25.37
2018-01-13T15:01:31.126Z,25.90
2018-01-13T15:03:59.494Z,27.47
2018-01-13T15:06:26.984Z,25.60
2018-01-13T15:08:54.470Z,26.90
2018-01-13T15:11:22.728Z,26.57
2018-01-13T15:13:50.200Z,28.63
2018-01-13T15:16:18.431Z,28.10
2018-01-13T15:18:46.692Z,29.00
2018-01-13T15:21:14.175Z,29.90
2018-01-13T15:23:41.872Z,29.60
2018-01-13T15:26:10.108Z,28.30
2018-01-13T15:28:37.590Z,27.73
2018-01-13T15:31:05.068Z,31.90
2018-01-13T15:33:33.368Z,28.03
2018-01-13T15:36:00.839Z,28.00
2018-01-13T15:38:28.317Z,28.20
2018-01-13T15:40:55.783Z,27.87
2018-01-13T15:43:23.296Z,25.97
2018-01-13T15:45:50.779Z,25.03
2018-01-13T15:48:19.042Z,28.53
2018-01-13T15:50:46.526Z,25.40
2018-01-13T15:53:14.176Z,23.90
2018-01-13T15:55:41.810Z,24.83
2018-01-13T15:58:09.347Z,25.60
2018-01-13T16:00:37.582Z,23.47
2018-01-13T16:03:05.070Z,25.37
2018-01-13T16:05:32.544Z,26.60
2018-01-13T16:08:00.782Z,27.50
2018-01-13T16:10:28.250Z,25.33
2018-01-13T16:12:55.738Z,27.40
2018-01-13T16:15:23.968Z,27.43
2018-01-13T16:17:51.447Z,26.47
2018-01-13T16:20:18.922Z,28.97
2018-01-13T16:22:47.177Z,27.53
2018-01-13T16:25:14.655Z,27.03
2018-01-13T16:27:42.902Z,29.27
2018-01-13T16:30:10.387Z,26.40
2018-01-13T16:32:37.870Z,27.03
2018-01-13T16:35:05.338Z,25.53
2018-01-13T16:37:32.816Z,27.07
2018-01-13T16:40:00.290Z,28.07
2018-01-13T16:45:22.433Z,25.10
2018-01-13T16:47:49.922Z,26.23
2018-01-13T16:50:17.458Z,25.47
2018-01-13T16:52:44.939Z,26.50
2018-01-13T16:55:12.414Z,23.57
2018-01-13T16:57:40.655Z,25.00
2018-01-13T17:00:08.133Z,22.47
2018-01-13T17:02:35.614Z,23.30
2018-01-13T17:05:03.905Z,25.30
2018-01-13T17:07:31.383Z,25.13
2018-01-13T17:09:58.837Z,23.23
2018-01-13T17:12:26.331Z,23.43
2018-01-13T17:14:53.800Z,26.07
2018-01-13T17:17:21.285Z,25.23
2018-01-13T17:19:49.509Z,23.40
2018-01-13T17:22:16.988Z,25.37
2018-01-13T17:24:44.453Z,24.50
2018-01-13T17:27:11.943Z,23.70
2018-01-13T17:29:39.415Z,23.93
2018-01-13T17:32:06.899Z,24.80
2018-01-13T17:34:34.367Z,23.63
2018-01-13T17:37:01.840Z,23.83
2018-01-13T17:39:30.760Z,24.33
2018-01-13T17:41:58.274Z,27.00
2018-01-13T17:44:25.772Z,25.20
2018-01-13T17:46:54.015Z,23.53
2018-01-13T17:49:21.489Z,26.33
2018-01-13T17:51:48.962Z,24.27
2018-01-13T17:54:17.214Z,24.33
2018-01-13T17:56:44.705Z,22.10
2018-01-13T17:59:12.952Z,23.57
2018-01-13T18:01:40.433Z,23.73
2018-01-13T18:04:08.686Z,24.47
2018-01-13T18:06:36.567Z,24.70
2018-01-13T18:09:04.828Z,23.93
2018-01-13T18:11:32.307Z,23.13
2018-01-13T18:14:00.563Z,22.37
2018-01-13T18:16:28.027Z,21.83
2018-01-13T18:18:55.648Z,21.20
2018-01-13T18:21:23.125Z,23.10
2018-01-13T18:23:50.602Z,23.17
2018-01-13T18:26:18.591Z,21.73
2018-01-13T18:28:46.057Z,21.10
2018-01-13T18:31:14.290Z,22.57
2018-01-13T18:33:41.782Z,22.97
2018-01-13T18:36:10.026Z,23.03
2018-01-13T18:38:37.503Z,21.40
2018-01-13T18:41:04.983Z,22.17
2018-01-13T18:43:33.230Z,22.23
2018-01-13T18:46:00.714Z,20.90
2018-01-13T18:48:28.966Z,21.47
2018-01-13T18:50:56.435Z,21.67
2018-01-13T18:53:23.919Z,23.93
2018-01-13T18:55:51.421Z,21.70
2018-01-13T18:58:18.895Z,21.97
2018-01-13T19:00:46.367Z,22.03
2018-01-13T19:03:13.863Z,21.67
2018-01-13T19:05:41.329Z,23.10
2018-01-13T19:08:08.812Z,23.20
2018-01-13T19:10:36.286Z,23.17
2018-01-13T19:13:03.764Z,26.43
2018-01-13T19:15:32.015Z,23.53
2018-01-13T19:17:59.496Z,22.40
2018-01-13T19:20:26.962Z,24.87
2018-01-13T19:22:55.210Z,23.87
2018-01-13T19:25:22.682Z,25.30
2018-01-13T19:27:50.206Z,22.57
2018-01-13T19:30:17.679Z,21.77
2018-01-13T19:32:45.160Z,22.50
2018-01-13T19:35:12.629Z,24.43
2018-01-13T19:37:40.882Z,23.50
2018-01-13T19:40:08.351Z,24.80
2018-01-13T19:42:36.290Z,22.67
2018-01-13T19:45:03.776Z,25.27
2018-01-13T19:47:31.245Z,22.23
2018-01-13T19:49:59.499Z,22.63
2018-01-13T19:52:26.985Z,25.50
2018-01-13T19:54:55.239Z,23.60
2018-01-13T19:57:23.200Z,20.27
2018-01-13T19:59:50.682Z,20.63
2018-01-13T20:02:18.175Z,22.00
2018-01-13T20:04:45.656Z,20.70
2018-01-13T20:07:13.133Z,22.10
2018-01-13T20:09:40.634Z,23.10
2018-01-13T20:12:08.863Z,22.30
2018-01-13T20:14:36.350Z,21.97
2018-01-13T20:17:03.831Z,24.67
2018-01-13T20:19:31.324Z,23.43
2018-01-13T20:21:58.797Z,21.70
2018-01-13T20:24:26.270Z,23.17
2018-01-13T20:26:53.746Z,22.90
2018-01-13T20:29:22.046Z,22.67
2018-01-13T20:31:49.466Z,24.13
2018-01-13T20:34:16.961Z,23.20
2018-01-13T20:36:44.429Z,22.17
2018-01-13T20:39:11.906Z,24.40
2018-01-13T20:41:39.394Z,23.33
2018-01-13T20:44:06.861Z,21.80
2018-01-13T20:46:34.326Z,22.63
2018-01-13T20:49:02.575Z,22.03
2018-01-13T20:51:30.048Z,22.13
2018-01-13T20:53:57.526Z,20.33
2018-01-13T20:56:25.770Z,21.73
2018-01-13T20:58:53.254Z,20.13
2018-01-13T21:01:21.493Z,20.47
2018-01-13T21:03:48.976Z,22.97
2018-01-13T21:06:16.438Z,22.17
2018-01-13T21:08:44.686Z,20.93
2018-01-13T21:11:12.149Z,21.07
2018-01-13T21:13:39.656Z,21.00
2018-01-13T21:16:07.135Z,20.67
2018-01-13T21:18:34.638Z,20.43
2018-01-13T21:21:02.138Z,21.07
2018-01-13T21:23:29.612Z,22.73
2018-01-13T21:25:57.088Z,22.30
2018-01-13T21:28:24.594Z,21.43
2018-01-13T21:30:52.828Z,21.33
2018-01-13T21:33:20.304Z,21.67
2018-01-13T21:35:47.792Z,21.90
2018-01-13T21:38:16.022Z,21.30
2018-01-13T21:40:43.511Z,22.47
2018-01-13T21:43:10.979Z,20.73
2018-01-13T21:45:39.257Z,21.70
2018-01-13T21:48:07.498Z,20.10
2018-01-13T21:50:35.004Z,21.40
2018-01-13T21:53:02.470Z,21.67
2018-01-13T21:55:29.961Z,20.00
2018-01-13T21:57:57.439Z,20.37
2018-01-13T22:00:24.913Z,19.93
2018-01-13T22:02:53.146Z,22.07
2018-01-13T22:05:20.626Z,21.00
2018-01-13T22:07:48.106Z,20.50
2018-01-13T22:10:16.354Z,18.77
2018-01-13T22:12:43.823Z,20.70
2018-01-13T22:15:11.290Z,20.53
2018-01-13T22:17:38.771Z,21.87
2018-01-13T22:20:07.018Z,21.60
2018-01-13T22:22:34.494Z,20.63
2018-01-13T22:25:02.758Z,19.97
2018-01-13T22:27:30.234Z,20.17
2018-01-13T22:29:58.481Z,19.73
2018-01-13T22:32:25.951Z,21.60
2018-01-13T22:34:53.459Z,19.60
2018-01-13T22:37:20.923Z,22.87
2018-01-13T22:39:48.454Z,20.53
2018-01-13T22:42:15.931Z,20.60
2018-01-13T22:44:43.416Z,20.90
2018-01-13T22:47:10.887Z,20.57
2018-01-13T22:49:38.387Z,21.03
2018-01-13T22:52:06.647Z,20.47
2018-01-13T22:54:34.899Z,20.83
2018-01-13T22:57:02.370Z,20.73
2018-01-13T22:59:29.860Z,21.13
2018-01-13T23:01:58.106Z,21.60
2018-01-13T23:04:25.591Z,21.20
2018-01-13T23:06:53.822Z,19.57
2018-01-13T23:09:21.298Z,19.60
2018-01-13T23:11:48.764Z,21.00
2018-01-13T23:14:17.012Z,20.30
2018-01-13T23:16:44.487Z,21.00
2018-01-13T23:19:11.966Z,21.00
2018-01-13T23:21:40.198Z,20.20
2018-01-13T23:24:07.674Z,19.50
2018-01-13T23:26:35.149Z,17.40
2018-01-13T23:29:03.400Z,17.80
2018-01-13T23:31:30.874Z,19.20
2018-01-13T23:33:58.346Z,16.53
2018-01-13T23:36:26.599Z,15.70
2018-01-13T23:38:54.064Z,17.87
2018-01-13T23:41:21.542Z,14.87
2018-01-13T23:43:49.786Z,13.83
2018-01-13T23:46:17.259Z,13.57
2018-01-13T23:48:44.727Z,13.77
2018-01-13T23:51:12.202Z,13.50
2018-01-13T23:53:39.674Z,13.70
2018-01-13T23:56:07.163Z,13.13
2018-01-13T23:58:35.398Z,13.17
